Time;durP1;ratioP1;P1;durP2;ratioP2;P2;SDS_P1;SDS_P2;PMS_P1;PMS_P2;Temp;Humidity;BMP_temperature;BMP_pressure;BME280_temperature;BME280_humidity;BME280_pressure;Samples;Min_cycle;Max_cycle;Signal;HPM_P1;HPM_P2
2021/01/21 00:04:58;;;;;;;2.50;1.60;;;10.80;99.90;;;;;;4974558;28;20248;-89
2021/01/21 00:07:24;;;;;;;3.10;2.10;;;10.80;99.90;;;;;;4975039;28;20525;-90
2021/01/21 00:09:50;;;;;;;2.10;1.63;;;10.90;99.90;;;;;;4976468;28;20274;-88
2021/01/21 00:12:17;;;;;;;4.17;2.03;;;11.00;99.90;;;;;;4976110;28;20197;-90
2021/01/21 00:14:43;;;;;;;2.30;1.70;;;11.10;99.90;;;;;;4976259;28;20232;-89
2021/01/21 00:17:09;;;;;;;3.10;1.60;;;11.10;99.90;;;;;;4976190;28;20193;-88
2021/01/21 00:19:36;;;;;;;2.07;1.50;;;11.30;99.90;;;;;;4976910;28;20205;-89
2021/01/21 00:22:03;;;;;;;2.73;1.37;;;11.40;99.90;;;;;;4976341;28;20197;-86
2021/01/21 00:24:29;;;;;;;1.80;1.40;;;11.40;99.90;;;;;;4975950;28;20311;-90
2021/01/21 00:26:56;;;;;;;2.10;1.67;;;11.40;99.90;;;;;;4976132;28;20201;-87
2021/01/21 00:29:22;;;;;;;2.83;1.50;;;11.40;99.90;;;;;;4976170;28;20236;-88
2021/01/21 00:31:49;;;;;;;4.87;1.30;;;11.50;99.90;;;;;;4976756;28;20225;-90
2021/01/21 00:34:15;;;;;;;3.40;1.43;;;11.40;99.90;;;;;;4976137;28;20262;-87
2021/01/21 00:36:42;;;;;;;2.53;1.70;;;11.40;99.90;;;;;;4976320;28;20236;-89
2021/01/21 00:39:09;;;;;;;3.53;1.90;;;11.30;99.90;;;;;;4975302;28;20923;-89
2021/01/21 00:41:36;;;;;;;3.33;1.37;;;11.30;99.90;;;;;;4976718;28;20221;-87
2021/01/21 00:44:02;;;;;;;2.80;1.70;;;11.30;99.90;;;;;;4975722;28;20727;-88
2021/01/21 00:46:29;;;;;;;3.07;1.60;;;11.30;99.90;;;;;;4976420;28;20541;-87
2021/01/21 00:48:56;;;;;;;2.47;1.53;;;11.40;99.90;;;;;;4975449;28;20193;-88
2021/01/21 00:51:23;;;;;;;1.53;1.30;;;11.40;99.90;;;;;;4975693;28;20204;-88
2021/01/21 00:53:49;;;;;;;1.63;1.40;;;11.50;99.90;;;;;;4975810;28;20633;-88
2021/01/21 00:56:17;;;;;;;1.93;1.50;;;11.50;99.90;;;;;;4975953;28;20205;-89
2021/01/21 00:58:43;;;;;;;3.17;1.33;;;11.50;99.90;;;;;;4975719;28;20213;-90
2021/01/21 01:01:09;;;;;;;5.43;1.23;;;11.60;99.90;;;;;;4975816;28;20209;-89
2021/01/21 01:03:36;;;;;;;2.50;1.80;;;11.50;99.90;;;;;;4975585;28;20244;-91
2021/01/21 01:06:05;;;;;;;3.57;1.30;;;11.50;99.90;;;;;;4975495;28;20193;-90
2021/01/21 01:08:31;;;;;;;2.73;1.57;;;11.60;99.90;;;;;;4976066;28;20232;-87
2021/01/21 01:10:57;;;;;;;5.83;1.47;;;11.50;99.90;;;;;;4975594;28;20271;-90
2021/01/21 01:13:25;;;;;;;4.37;1.53;;;11.30;99.90;;;;;;4975992;28;20205;-90
2021/01/21 01:15:51;;;;;;;1.80;1.33;;;11.10;99.90;;;;;;4975749;28;20596;-90
2021/01/21 01:18:18;;;;;;;3.13;1.40;;;11.00;99.90;;;;;;4976047;28;20240;-88
2021/01/21 01:20:45;;;;;;;1.73;1.43;;;10.90;99.90;;;;;;4975775;28;20228;-88
2021/01/21 01:23:12;;;;;;;2.40;1.50;;;10.80;99.90;;;;;;4975977;28;20209;-89
2021/01/21 01:25:38;;;;;;;3.87;2.00;;;10.80;99.90;;;;;;4975765;28;20252;-88
2021/01/21 01:28:04;;;;;;;3.83;1.67;;;10.70;99.90;;;;;;4976288;28;20255;-91
2021/01/21 01:30:32;;;;;;;2.33;1.90;;;10.70;99.90;;;;;;4976051;28;20237;-89
2021/01/21 01:32:58;;;;;;;3.90;1.47;;;10.70;99.90;;;;;;4975671;28;20236;-88
2021/01/21 01:35:25;;;;;;;2.80;1.63;;;10.80;99.90;;;;;;4975650;28;20660;-92
2021/01/21 01:37:51;;;;;;;1.90;1.80;;;10.90;99.90;;;;;;4975426;28;20205;-89
2021/01/21 01:40:17;;;;;;;6.50;1.93;;;10.90;99.90;;;;;;4975661;28;20708;-90
2021/01/21 01:42:44;;;;;;;3.27;1.53;;;10.90;99.90;;;;;;4975901;28;20680;-88
2021/01/21 01:45:12;;;;;;;2.70;2.00;;;11.00;99.90;;;;;;4975777;28;20232;-88
2021/01/21 01:47:41;;;;;;;3.17;1.70;;;11.10;99.90;;;;;;4975782;28;20324;-89
2021/01/21 01:50:09;;;;;;;3.23;1.47;;;11.10;99.90;;;;;;4976053;28;20251;-88
2021/01/21 01:52:41;;;;;;;4.00;1.90;;;11.00;99.90;;;;;;4976740;28;20220;-86
2021/01/21 01:55:09;;;;;;;1.40;1.30;;;11.00;99.90;;;;;;4976116;28;20225;-88
2021/01/21 01:57:36;;;;;;;3.80;1.67;;;11.00;99.90;;;;;;4979820;28;20225;-90
2021/01/21 02:00:04;;;;;;;3.00;1.50;;;11.00;99.90;;;;;;4980205;28;20209;-90
2021/01/21 02:02:32;;;;;;;2.53;1.57;;;11.00;99.90;;;;;;4979824;28;20346;-87
2021/01/21 02:05:00;;;;;;;2.70;1.50;;;11.00;99.90;;;;;;4979653;28;20317;-87
2021/01/21 02:07:27;;;;;;;1.50;1.40;;;11.00;99.90;;;;;;4979868;28;20213;-89
2021/01/21 02:09:55;;;;;;;2.53;1.20;;;10.90;99.90;;;;;;4979585;28;20233;-89
2021/01/21 02:12:36;;;;;;;3.77;1.70;;;10.90;99.90;;;;;;4979610;28;20194;-89
2021/01/21 02:15:08;;;;;;;2.37;1.70;;;10.90;99.90;;;;;;4979361;28;20283;-88
2021/01/21 02:17:39;;;;;;;3.63;1.40;;;10.80;99.90;;;;;;4978811;28;20194;-90
2021/01/21 02:20:36;;;;;;;3.17;1.70;;;10.70;99.90;;;;;;4978856;28;20545;-90
2021/01/21 02:23:50;;;;;;;2.73;1.37;;;10.60;99.90;;;;;;4979217;28;20205;-90
2021/01/21 02:26:22;;;;;;;2.23;1.50;;;10.60;99.90;;;;;;4975612;28;20223;-89
2021/01/21 02:29:12;;;;;;;2.40;1.20;;;10.70;99.90;;;;;;4979122;28;20252;-86
2021/01/21 02:31:48;;;;;;;2.13;1.37;;;10.80;99.90;;;;;;4979013;28;20212;-88
2021/01/21 02:34:20;;;;;;;2.43;1.33;;;10.90;99.90;;;;;;4978428;28;20575;-87
2021/01/21 02:36:52;;;;;;;2.40;1.20;;;11.00;99.90;;;;;;4978765;28;20197;-87
2021/01/21 02:39:20;;;;;;;2.20;1.43;;;10.90;99.90;;;;;;4978267;28;20645;-87
2021/01/21 02:41:47;;;;;;;1.30;1.20;;;10.90;99.90;;;;;;4978884;28;20321;-85
2021/01/21 02:44:13;;;;;;;2.97;1.57;;;10.90;99.90;;;;;;4978234;28;20251;-89
2021/01/21 02:46:40;;;;;;;2.67;1.43;;;10.80;99.90;;;;;;4978595;28;20209;-90
2021/01/21 02:49:07;;;;;;;3.38;1.80;;;10.70;99.90;;;;;;4977920;28;20450;-88
2021/01/21 02:51:40;;;;;;;3.90;1.97;;;10.80;99.90;;;;;;4983389;28;20271;-87
2021/01/21 02:54:30;;;;;;;2.43;1.43;;;10.70;99.90;;;;;;4984273;28;20239;-89
2021/01/21 02:57:06;;;;;;;2.60;1.87;;;10.70;99.90;;;;;;4982542;28;20534;-91
2021/01/21 02:59:38;;;;;;;1.57;0.97;;;10.60;99.90;;;;;;4979650;28;20296;-89
2021/01/21 03:02:06;;;;;;;1.23;0.70;;;10.10;99.90;;;;;;4978460;28;20220;-90
2021/01/21 03:04:36;;;;;;;3.80;0.83;;;9.30;99.90;;;;;;4977421;28;20252;-92
2021/01/21 03:07:04;;;;;;;2.80;0.60;;;8.70;99.90;;;;;;4977927;28;20284;-93
2021/01/21 03:09:31;;;;;;;3.13;0.73;;;8.40;99.90;;;;;;4978149;28;20233;-89
2021/01/21 03:12:16;;;;;;;2.23;0.77;;;8.20;99.90;;;;;;4977578;28;20292;-87
2021/01/21 03:14:42;;;;;;;2.47;0.93;;;8.10;99.90;;;;;;4977343;28;20278;-89
2021/01/21 03:17:09;;;;;;;2.70;0.73;;;8.00;99.90;;;;;;4978461;28;20216;-91
2021/01/21 03:19:35;;;;;;;2.50;0.57;;;8.00;99.90;;;;;;4977648;28;20200;-90
2021/01/21 03:22:03;;;;;;;1.13;0.70;;;7.90;99.90;;;;;;4977197;28;20294;-90
2021/01/21 03:24:29;;;;;;;4.00;0.80;;;7.90;99.90;;;;;;4977508;28;20226;-91
2021/01/21 03:26:56;;;;;;;1.97;0.83;;;7.80;99.90;;;;;;4977894;28;20216;-91
2021/01/21 03:29:22;;;;;;;4.77;0.90;;;7.70;99.90;;;;;;4976970;28;20224;-89
2021/01/21 03:31:48;;;;;;;1.37;0.53;;;7.70;99.90;;;;;;4977266;28;20259;-90
2021/01/21 03:34:16;;;;;;;4.43;0.70;;;7.60;99.90;;;;;;4977088;28;20221;-92
2021/01/21 03:36:42;;;;;;;3.50;1.00;;;7.60;99.90;;;;;;4977360;28;20220;-89
2021/01/21 03:39:10;;;;;;;7.00;1.73;;;7.60;99.90;;;;;;4976908;28;20204;-89
2021/01/21 03:41:36;;;;;;;3.80;0.80;;;7.60;99.90;;;;;;4976802;28;20208;-92
2021/01/21 03:44:03;;;;;;;3.03;0.80;;;7.50;99.90;;;;;;4977073;28;20229;-90
2021/01/21 03:46:29;;;;;;;4.10;0.83;;;7.50;99.90;;;;;;4976772;28;20209;-89
2021/01/21 03:48:55;;;;;;;2.27;0.67;;;7.30;99.90;;;;;;4977287;28;20236;-92
2021/01/21 03:51:22;;;;;;;2.23;0.70;;;7.20;99.90;;;;;;4976805;28;20215;-89
2021/01/21 03:53:48;;;;;;;2.83;0.73;;;7.10;99.90;;;;;;4977474;28;20216;-89
2021/01/21 03:56:18;;;;;;;4.97;0.90;;;7.00;99.90;;;;;;4977472;28;20202;-90
2021/01/21 03:58:45;;;;;;;2.70;0.67;;;7.00;99.90;;;;;;4976837;28;20552;-89
2021/01/21 04:01:11;;;;;;;4.17;0.93;;;6.90;99.90;;;;;;4977643;28;20213;-89
2021/01/21 04:03:38;;;;;;;4.50;0.77;;;7.00;99.90;;;;;;4976901;28;20233;-90
2021/01/21 04:06:04;;;;;;;2.17;0.70;;;6.90;99.90;;;;;;4977185;28;20213;-90
2021/01/21 04:08:31;;;;;;;4.10;0.83;;;6.90;99.90;;;;;;4976894;28;20265;-88
2021/01/21 04:10:58;;;;;;;7.30;1.33;;;7.00;99.90;;;;;;4977084;28;20236;-90
2021/01/21 04:13:25;;;;;;;5.10;0.93;;;7.00;99.90;;;;;;4976586;28;20284;-92
2021/01/21 04:15:52;;;;;;;3.73;1.03;;;7.10;99.90;;;;;;4976221;28;20628;-89
2021/01/21 04:18:18;;;;;;;3.47;1.10;;;7.10;99.90;;;;;;4976287;28;20213;-90
2021/01/21 04:20:44;;;;;;;3.07;0.80;;;7.10;99.90;;;;;;4976476;28;20197;-93
2021/01/21 04:23:11;;;;;;;4.63;1.27;;;7.20;99.90;;;;;;4976860;28;20220;-89
2021/01/21 04:25:37;;;;;;;5.50;1.80;;;7.20;99.90;;;;;;4975850;28;20440;-90
2021/01/21 04:28:03;;;;;;;4.13;1.30;;;7.30;99.90;;;;;;4976251;28;20210;-91
2021/01/21 04:30:31;;;;;;;4.97;1.13;;;7.30;99.90;;;;;;4976148;28;20233;-91
2021/01/21 04:32:58;;;;;;;2.93;1.43;;;7.40;99.90;;;;;;4976749;28;20288;-89
2021/01/21 04:35:24;;;;;;;7.93;1.47;;;7.40;99.90;;;;;;4976005;28;20224;-88
2021/01/21 04:37:51;;;;;;;4.53;1.53;;;7.40;99.90;;;;;;4976344;28;20209;-92
2021/01/21 04:40:17;;;;;;;5.60;1.23;;;7.40;99.90;;;;;;4976257;28;20208;-87
2021/01/21 04:42:43;;;;;;;15.10;1.60;;;7.40;99.90;;;;;;4976144;28;20205;-89
2021/01/21 04:45:11;;;;;;;7.07;1.60;;;7.40;99.90;;;;;;4976653;28;20313;-90
2021/01/21 04:47:39;;;;;;;6.47;1.97;;;7.50;99.90;;;;;;4975997;28;20683;-90
2021/01/21 04:50:07;;;;;;;6.47;1.37;;;7.50;99.90;;;;;;4976401;28;20335;-92
2021/01/21 04:52:36;;;;;;;7.03;1.80;;;7.50;99.90;;;;;;4976774;28;20216;-90
2021/01/21 04:55:08;;;;;;;8.37;1.60;;;7.50;99.90;;;;;;4975744;28;20309;-89
2021/01/21 04:57:42;;;;;;;13.07;1.90;;;7.40;99.90;;;;;;4976134;28;20209;-90
2021/01/21 05:00:10;;;;;;;7.60;1.37;;;7.50;99.90;;;;;;4975858;28;20201;-89
2021/01/21 05:02:40;;;;;;;10.77;1.77;;;7.40;99.90;;;;;;4975323;28;20248;-90
2021/01/21 05:05:09;;;;;;;5.67;1.70;;;7.40;99.90;;;;;;4975879;28;20232;-91
2021/01/21 05:07:37;;;;;;;8.80;1.87;;;7.40;99.90;;;;;;4975591;28;20209;-90
2021/01/21 05:10:06;;;;;;;8.40;1.80;;;7.50;99.90;;;;;;4977653;28;20216;-93
2021/01/21 05:12:32;;;;;;;8.33;2.00;;;7.60;99.90;;;;;;4977075;28;20692;-92
2021/01/21 05:14:59;;;;;;;10.63;2.67;;;7.60;99.90;;;;;;4977572;28;20221;-91
2021/01/21 05:17:26;;;;;;;9.57;2.47;;;7.60;99.90;;;;;;4980715;28;20264;-91
2021/01/21 05:19:54;;;;;;;11.20;1.63;;;7.50;99.90;;;;;;4989239;28;20209;-91
2021/01/21 05:22:21;;;;;;;6.63;1.70;;;7.60;99.90;;;;;;4985882;28;20213;-93
2021/01/21 05:24:48;;;;;;;10.17;1.73;;;7.50;99.90;;;;;;4978920;28;20652;-94
2021/01/21 05:27:16;;;;;;;8.37;1.70;;;7.60;99.90;;;;;;4978701;28;20285;-92
2021/01/21 05:29:45;;;;;;;11.50;1.77;;;7.60;99.90;;;;;;4979100;28;20316;-93
2021/01/21 05:32:14;;;;;;;5.37;1.53;;;7.60;99.90;;;;;;4981539;28;20276;-93
2021/01/21 05:34:41;;;;;;;9.57;2.10;;;7.50;99.90;;;;;;4980577;28;20228;-92
2021/01/21 05:37:11;;;;;;;9.90;2.00;;;7.40;99.90;;;;;;4982893;28;20259;-91
2021/01/21 05:39:39;;;;;;;11.70;1.83;;;7.40;99.90;;;;;;4983405;28;20226;-93
2021/01/21 05:42:07;;;;;;;7.33;1.97;;;7.40;99.90;;;;;;4981519;28;20208;-92
2021/01/21 05:44:34;;;;;;;10.17;1.80;;;7.30;99.90;;;;;;4982285;28;20237;-92
2021/01/21 05:47:02;;;;;;;7.97;1.80;;;7.30;99.90;;;;;;4982084;28;20240;-92
2021/01/21 05:49:29;;;;;;;6.57;1.60;;;7.20;99.90;;;;;;4981764;28;20233;-92
2021/01/21 05:51:58;;;;;;;6.43;1.87;;;7.20;99.90;;;;;;4986898;28;20574;-92
2021/01/21 05:54:28;;;;;;;12.23;1.97;;;7.30;99.90;;;;;;4987974;28;20715;-92
2021/01/21 05:56:56;;;;;;;9.10;1.60;;;7.30;99.90;;;;;;4988493;28;20225;-92
2021/01/21 05:59:24;;;;;;;12.63;2.00;;;7.30;99.90;;;;;;4988450;28;20237;-91
2021/01/21 06:01:52;;;;;;;9.70;1.93;;;7.20;99.90;;;;;;4989562;28;20215;-94
2021/01/21 06:04:20;;;;;;;12.35;2.38;;;7.20;99.90;;;;;;4990932;28;20463;-93
2021/01/21 06:06:47;;;;;;;12.50;2.63;;;7.30;99.90;;;;;;4990940;28;20205;-94
2021/01/21 06:09:16;;;;;;;13.10;2.00;;;7.20;99.90;;;;;;4990828;28;20206;-93
2021/01/21 06:11:43;;;;;;;10.50;2.07;;;7.20;99.90;;;;;;4990999;28;20212;-93
2021/01/21 06:14:11;;;;;;;11.20;2.63;;;7.10;99.90;;;;;;4991796;28;20233;-92
2021/01/21 06:16:38;;;;;;;8.93;2.07;;;7.10;99.90;;;;;;4990552;28;20217;-91
2021/01/21 06:19:05;;;;;;;10.97;2.03;;;7.20;99.90;;;;;;4989186;28;20594;-92
2021/01/21 06:21:36;;;;;;;11.97;2.50;;;7.20;99.90;;;;;;4986020;28;20209;-91
2021/01/21 06:24:05;;;;;;;14.83;1.83;;;7.30;99.90;;;;;;4984300;28;20255;-92
2021/01/21 06:32:08;;;;;;;6.37;2.13;;;7.00;99.90;;;;;;5016259;23;20683;-94
2021/01/21 06:34:38;;;;;;;11.40;2.10;;;7.10;99.90;;;;;;4982001;28;20233;-95
2021/01/21 06:37:11;;;;;;;9.87;2.77;;;7.00;99.90;;;;;;4981909;28;20284;-93
2021/01/21 06:39:52;;;;;;;13.37;2.50;;;7.00;99.90;;;;;;4982199;28;20217;-93
2021/01/21 06:42:28;;;;;;;11.90;2.00;;;6.90;99.90;;;;;;4977891;28;20269;-94
2021/01/21 06:44:58;;;;;;;16.63;2.20;;;6.90;99.90;;;;;;4980499;28;20233;-94
2021/01/21 06:47:25;;;;;;;15.80;2.93;;;7.00;99.90;;;;;;4978510;28;20686;-93
2021/01/21 06:49:57;;;;;;;11.57;2.10;;;6.90;99.90;;;;;;4979304;28;20719;-94
2021/01/21 06:52:38;;;;;;;13.80;2.57;;;6.80;99.90;;;;;;4982370;28;20213;-95
2021/01/21 07:07:06;;;;;;;9.83;2.47;;;6.90;99.90;;;;;;4924508;29;20234;-93
2021/01/21 07:09:33;;;;;;;13.00;2.90;;;6.90;99.90;;;;;;4939238;29;20198;-92
2021/01/21 07:12:02;;;;;;;11.17;2.27;;;7.00;99.90;;;;;;4939301;29;20199;-92
2021/01/21 07:14:30;;;;;;;11.00;2.30;;;7.00;99.90;;;;;;4939468;29;20638;-92
2021/01/21 07:17:00;;;;;;;10.37;2.30;;;7.00;99.90;;;;;;4940457;29;20215;-92
2021/01/21 07:19:38;;;;;;;10.60;2.30;;;7.00;99.90;;;;;;4943943;29;20229;-93
2021/01/21 07:22:19;;;;;;;11.60;2.27;;;7.00;99.90;;;;;;4944516;29;20285;-92
2021/01/21 07:24:56;;;;;;;9.87;2.07;;;7.00;99.90;;;;;;4939127;29;20235;-94
2021/01/21 07:27:25;;;;;;;10.37;2.00;;;7.00;99.90;;;;;;4939665;29;20266;-92
2021/01/21 07:30:17;;;;;;;8.57;1.80;;;6.90;99.90;;;;;;4939119;29;20249;-93
2021/01/21 07:32:44;;;;;;;6.80;2.93;;;7.00;99.90;;;;;;4939464;29;20215;-93
2021/01/21 07:35:36;;;;;;;11.67;2.77;;;6.80;99.90;;;;;;4938595;29;20270;-92
2021/01/21 07:38:03;;;;;;;8.87;2.20;;;6.90;99.90;;;;;;4938838;29;20226;-92
2021/01/21 07:40:43;;;;;;;12.23;2.87;;;6.80;99.90;;;;;;4939751;29;20293;-94
2021/01/21 07:43:09;;;;;;;9.80;1.90;;;6.80;99.90;;;;;;4943384;29;20206;-92
2021/01/21 07:45:37;;;;;;;12.40;1.93;;;6.80;99.90;;;;;;4938908;29;20226;-93
2021/01/21 07:48:23;;;;;;;14.20;1.77;;;6.80;99.90;;;;;;4939384;29;20203;-93
2021/01/21 07:50:51;;;;;;;10.67;2.47;;;6.80;99.90;;;;;;4938888;29;20354;-92
2021/01/21 07:53:22;;;;;;;9.90;4.10;;;6.80;99.90;;;;;;4937611;29;20265;-92
2021/01/21 07:55:50;;;;;;;10.50;2.17;;;6.80;99.90;;;;;;4942921;29;20226;-91
2021/01/21 08:07:55;;;;;;;10.53;2.47;;;6.70;99.90;;;;;;5002012;28;20219;-93
2021/01/21 08:46:40;;;;;;;10.87;1.57;;;7.10;99.90;;;;;;4971979;29;20212;-94
2021/01/21 09:06:29;;;;;;;6.30;1.77;;;7.10;99.90;;;;;;5290075;23;20234;-92
2021/01/21 09:18:16;;;;;;;9.93;3.07;;;7.10;99.90;;;;;;5002648;23;20292;-93
2021/01/21 10:01:29;;;;;;;8.27;1.77;;;7.80;99.90;;;;;;4918997;29;20204;-94
2021/01/21 10:24:54;;;;;;;5.43;2.17;;;7.90;99.90;;;;;;4923334;28;20221;-93
2021/01/21 10:33:20;;;;;;;8.23;1.67;;;8.10;99.90;;;;;;4968991;29;20821;-95
2021/01/21 10:35:50;;;;;;;4.00;1.53;;;8.20;99.90;;;;;;4968753;28;20226;-95
2021/01/21 10:38:19;;;;;;;8.37;1.90;;;8.30;99.90;;;;;;4966982;29;20210;-95
2021/01/21 10:41:20;;;;;;;8.60;1.80;;;8.30;99.90;;;;;;4967634;29;20885;-94
2021/01/21 10:47:10;;;;;;;7.90;1.47;;;8.30;99.90;;;;;;4893660;29;20232;-94
2021/01/21 10:49:57;;;;;;;6.57;1.53;;;8.20;99.90;;;;;;4910232;29;20211;-93
2021/01/21 10:52:29;;;;;;;4.50;1.40;;;8.20;99.90;;;;;;4907046;29;20207;-93
2021/01/21 10:55:00;;;;;;;7.80;1.63;;;8.20;99.90;;;;;;4905112;29;20242;-94
2021/01/21 10:57:29;;;;;;;8.50;1.90;;;8.30;99.90;;;;;;4907103;29;20595;-94
2021/01/21 11:02:45;;;;;;;6.70;1.37;;;8.30;99.90;;;;;;4907643;29;20204;-93
2021/01/21 11:05:29;;;;;;;4.90;1.57;;;8.30;99.90;;;;;;4906021;29;20227;-94
2021/01/21 11:08:05;;;;;;;7.53;1.67;;;8.20;99.90;;;;;;4904717;29;20228;-94
2021/01/21 11:10:32;;;;;;;11.03;1.90;;;8.20;99.90;;;;;;4903931;29;20720;-93
2021/01/21 11:13:05;;;;;;;6.27;1.70;;;8.20;99.90;;;;;;4886200;29;20284;-92
2021/01/21 11:15:36;;;;;;;5.60;1.90;;;8.20;99.90;;;;;;4887533;29;20247;-93
2021/01/21 11:18:04;;;;;;;6.67;1.60;;;8.20;99.90;;;;;;4904540;29;20290;-95
2021/01/21 11:20:34;;;;;;;8.40;1.73;;;8.30;99.90;;;;;;4903362;29;20230;-93
2021/01/21 11:23:01;;;;;;;4.27;1.60;;;8.40;99.90;;;;;;4904199;29;20200;-94
2021/01/21 11:25:27;;;;;;;5.93;1.47;;;8.30;99.90;;;;;;4904508;29;20234;-94
2021/01/21 11:27:54;;;;;;;6.87;1.63;;;8.40;99.90;;;;;;4907833;29;20218;-94
2021/01/21 11:30:26;;;;;;;6.30;2.30;;;8.30;99.90;;;;;;4906992;29;20236;-92
2021/01/21 11:32:52;;;;;;;4.87;1.47;;;8.40;99.90;;;;;;4913266;29;20212;-93
2021/01/21 11:35:20;;;;;;;6.73;1.43;;;8.30;99.90;;;;;;4915132;29;20228;-95
2021/01/21 11:37:46;;;;;;;8.33;1.40;;;8.40;99.90;;;;;;4981719;28;20213;-94
2021/01/21 11:40:51;;;;;;;3.23;1.17;;;8.40;99.90;;;;;;4985404;28;20219;-93
2021/01/21 11:52:36;;;;;;;5.33;1.30;;;8.50;99.90;;;;;;5001433;23;20271;-94
2021/01/21 12:02:09;;;;;;;9.53;1.50;;;8.80;99.90;;;;;;4974457;29;20221;-95
2021/01/21 12:08:01;;;;;;;6.30;1.60;;;8.90;99.90;;;;;;4991543;28;20241;-96
2021/01/21 13:06:18;;;;;;;6.60;2.03;;;8.90;99.90;;;;;;6193960;22;20281;-93
2021/01/21 13:08:45;;;;;;;9.53;2.50;;;8.90;99.90;;;;;;6228966;23;20542;-95
2021/01/21 13:11:12;;;;;;;8.07;2.50;;;8.80;99.90;;;;;;6227747;23;20498;-95
2021/01/21 13:13:38;;;;;;;11.13;2.03;;;8.90;99.90;;;;;;6227893;23;20174;-96
2021/01/21 13:16:05;;;;;;;4.23;1.40;;;9.00;99.90;;;;;;6227862;23;20579;-93
2021/01/21 13:18:31;;;;;;;8.03;1.87;;;9.10;99.90;;;;;;6225303;23;20194;-93
2021/01/21 13:20:58;;;;;;;8.73;1.90;;;9.10;99.90;;;;;;6226049;23;20245;-95
2021/01/21 13:23:25;;;;;;;6.50;2.10;;;9.30;99.90;;;;;;6224683;23;20250;-96
2021/01/21 13:25:52;;;;;;;5.93;1.60;;;9.40;99.90;;;;;;6224919;23;20210;-94
2021/01/21 13:28:18;;;;;;;7.07;1.90;;;9.10;99.90;;;;;;6224838;23;20253;-95
2021/01/21 13:30:44;;;;;;;4.33;1.50;;;9.20;99.90;;;;;;6224707;23;20173;-94
2021/01/21 13:33:11;;;;;;;8.67;1.73;;;9.20;99.90;;;;;;6224753;23;20174;-94
2021/01/21 13:35:37;;;;;;;7.00;1.60;;;9.20;99.90;;;;;;6223410;23;20631;-95
2021/01/21 13:38:04;;;;;;;6.93;2.10;;;9.20;99.90;;;;;;6218595;23;20241;-95
2021/01/21 13:40:31;;;;;;;4.10;1.37;;;9.10;99.90;;;;;;6223454;23;20227;-93
2021/01/21 13:42:58;;;;;;;7.00;2.20;;;9.10;99.90;;;;;;6226689;23;20482;-93
2021/01/21 13:45:26;;;;;;;6.60;1.43;;;9.10;99.90;;;;;;6221601;23;20204;-94
2021/01/21 13:47:53;;;;;;;8.77;1.77;;;9.20;99.90;;;;;;6218203;23;20250;-93
2021/01/21 13:50:20;;;;;;;6.60;1.67;;;9.20;99.90;;;;;;6218037;23;20174;-96
2021/01/21 13:52:46;;;;;;;6.30;1.70;;;9.10;99.90;;;;;;6218086;23;20610;-93
2021/01/21 13:55:13;;;;;;;8.73;3.80;;;9.10;99.90;;;;;;6218400;23;20233;-94
2021/01/21 13:57:40;;;;;;;11.93;3.57;;;9.10;99.90;;;;;;6218325;23;20167;-94
2021/01/21 14:00:08;;;;;;;9.17;1.80;;;9.10;99.90;;;;;;6218317;23;20538;-95
2021/01/21 14:02:34;;;;;;;7.93;1.83;;;9.10;99.90;;;;;;6217949;23;20181;-93
2021/01/21 14:05:00;;;;;;;10.60;1.70;;;8.90;99.90;;;;;;6218381;23;20263;-94
2021/01/21 14:07:27;;;;;;;7.13;1.47;;;8.90;99.90;;;;;;6218917;23;20721;-93
2021/01/21 14:09:53;;;;;;;6.13;1.30;;;9.00;99.90;;;;;;6218595;23;20208;-94
2021/01/21 14:12:20;;;;;;;8.50;2.33;;;9.00;99.90;;;;;;6218408;23;20166;-94
2021/01/21 14:14:47;;;;;;;9.40;1.73;;;9.10;99.90;;;;;;6218516;23;20197;-93
2021/01/21 14:17:13;;;;;;;3.97;1.30;;;9.00;99.90;;;;;;6218261;23;20199;-94
2021/01/21 14:19:40;;;;;;;7.57;1.90;;;9.00;99.90;;;;;;6218814;23;20171;-93
2021/01/21 14:22:06;;;;;;;8.50;2.00;;;8.90;99.90;;;;;;6219345;23;20249;-96
2021/01/21 14:24:33;;;;;;;5.93;1.93;;;8.90;99.90;;;;;;6219045;23;20289;-93
2021/01/21 14:26:59;;;;;;;10.37;2.73;;;8.90;99.90;;;;;;6218815;23;20295;-96
2021/01/21 14:29:26;;;;;;;8.73;2.20;;;8.90;99.90;;;;;;6219108;23;20242;-95
2021/01/21 14:31:53;;;;;;;10.60;1.77;;;8.90;99.90;;;;;;6218329;23;20241;-94
2021/01/21 14:34:20;;;;;;;7.57;2.10;;;8.90;99.90;;;;;;6218371;23;20233;-95
2021/01/21 14:36:46;;;;;;;7.90;3.23;;;8.90;99.90;;;;;;6218738;23;20224;-96
2021/01/21 14:39:14;;;;;;;5.80;1.70;;;8.90;99.90;;;;;;6219434;23;20166;-94
2021/01/21 14:41:40;;;;;;;9.10;1.87;;;9.00;99.90;;;;;;6218460;23;20168;-94
2021/01/21 14:44:07;;;;;;;6.43;1.50;;;8.90;99.90;;;;;;6218699;23;20319;-94
2021/01/21 14:46:33;;;;;;;8.57;1.30;;;8.90;99.90;;;;;;6219463;23;20194;-94
2021/01/21 14:49:01;;;;;;;6.27;2.00;;;8.90;99.90;;;;;;6218847;23;20245;-94
2021/01/21 14:51:27;;;;;;;8.40;1.87;;;9.10;99.90;;;;;;6220651;23;20176;-96
2021/01/21 14:53:53;;;;;;;7.60;2.17;;;8.90;99.90;;;;;;6218312;23;20206;-96
2021/01/21 14:56:20;;;;;;;8.07;2.03;;;8.90;99.90;;;;;;6222979;23;20226;-91
2021/01/21 14:58:46;;;;;;;13.77;2.50;;;9.00;99.90;;;;;;6218334;23;20488;-94
2021/01/21 15:01:12;;;;;;;5.70;2.13;;;9.10;99.90;;;;;;6217950;23;20163;-94
2021/01/21 15:03:39;;;;;;;8.07;1.97;;;9.20;99.90;;;;;;6218491;23;20205;-92
2021/01/21 15:06:06;;;;;;;7.03;1.43;;;9.20;99.90;;;;;;6217934;23;20217;-92
2021/01/21 15:08:32;;;;;;;11.43;1.70;;;9.10;99.90;;;;;;6218266;23;20486;-93
2021/01/21 15:11:00;;;;;;;12.17;2.00;;;9.00;99.90;;;;;;6217969;23;20258;-93
2021/01/21 15:13:28;;;;;;;10.97;2.00;;;9.00;99.90;;;;;;6217384;23;20166;-94
2021/01/21 15:15:54;;;;;;;12.50;3.17;;;9.00;99.90;;;;;;6217644;23;20198;-93
2021/01/21 15:18:20;;;;;;;9.37;1.77;;;9.00;99.90;;;;;;6217695;23;20249;-92
2021/01/21 15:20:49;;;;;;;6.57;1.73;;;8.80;99.90;;;;;;6217275;23;20173;-93
2021/01/21 15:23:16;;;;;;;6.70;1.93;;;8.80;99.90;;;;;;6217731;23;20208;-93
2021/01/21 15:25:44;;;;;;;6.03;1.40;;;8.80;99.90;;;;;;6217290;23;20245;-93
2021/01/21 15:28:15;;;;;;;10.60;1.87;;;8.80;99.90;;;;;;6217360;23;20178;-93
2021/01/21 15:30:42;;;;;;;14.03;2.20;;;8.80;99.90;;;;;;6218704;23;20453;-93
2021/01/21 15:33:09;;;;;;;7.40;1.80;;;8.90;99.90;;;;;;6217510;23;20250;-93
2021/01/21 15:35:35;;;;;;;11.90;2.60;;;8.90;99.90;;;;;;6217701;23;20739;-93
2021/01/21 15:38:01;;;;;;;13.13;2.17;;;8.90;99.90;;;;;;6218057;23;20192;-92
2021/01/21 15:40:28;;;;;;;7.27;1.93;;;8.90;99.90;;;;;;6217135;23;20201;-92
2021/01/21 15:42:55;;;;;;;13.13;3.60;;;8.90;99.90;;;;;;6217248;23;20166;-91
2021/01/21 15:45:21;;;;;;;12.13;1.77;;;9.00;99.90;;;;;;6217071;23;20578;-90
2021/01/21 15:47:48;;;;;;;10.03;2.50;;;8.90;99.90;;;;;;6217397;23;20623;-90
2021/01/21 15:50:14;;;;;;;6.50;1.77;;;8.80;99.90;;;;;;6220451;23;20222;-95
2021/01/21 15:52:40;;;;;;;5.37;1.43;;;8.80;99.90;;;;;;6218697;23;20245;-94
2021/01/21 15:55:08;;;;;;;7.87;1.30;;;8.70;99.90;;;;;;6217849;23;20190;-94
2021/01/21 15:57:35;;;;;;;7.00;1.60;;;8.50;99.90;;;;;;6217346;23;20572;-93
2021/01/21 16:00:02;;;;;;;5.57;1.17;;;8.40;99.90;;;;;;6218064;23;20670;-92
2021/01/21 16:02:28;;;;;;;12.90;2.00;;;8.40;99.90;;;;;;6216891;23;20171;-92
2021/01/21 16:04:55;;;;;;;7.87;1.43;;;8.40;99.90;;;;;;6217442;23;20334;-92
2021/01/21 16:07:21;;;;;;;5.97;1.27;;;8.50;99.90;;;;;;6216573;23;20269;-91
2021/01/21 16:09:48;;;;;;;7.33;1.80;;;8.30;99.90;;;;;;6216109;23;20458;-94
2021/01/21 16:12:14;;;;;;;6.43;1.90;;;8.10;99.90;;;;;;6217041;23;20239;-93
2021/01/21 16:14:42;;;;;;;6.13;1.57;;;8.10;99.90;;;;;;6217030;23;20190;-91
2021/01/21 16:17:08;;;;;;;5.23;1.50;;;8.00;99.90;;;;;;6217742;23;20167;-92
2021/01/21 16:19:35;;;;;;;7.03;1.70;;;7.80;99.90;;;;;;6216988;23;20220;-92
2021/01/21 16:22:01;;;;;;;9.18;1.80;;;7.80;99.90;;;;;;6216645;23;20394;-91
2021/01/21 16:24:28;;;;;;;8.07;1.87;;;7.80;99.90;;;;;;6217084;23;20199;-92
2021/01/21 16:26:55;;;;;;;5.10;1.60;;;7.60;99.90;;;;;;6217273;23;20174;-90
2021/01/21 16:29:21;;;;;;;7.53;1.77;;;7.60;99.90;;;;;;6217458;23;20170;-91
2021/01/21 16:31:49;;;;;;;9.37;2.00;;;7.60;99.90;;;;;;6216713;23;20218;-92
2021/01/21 16:34:15;;;;;;;8.60;2.00;;;7.70;99.90;;;;;;6217314;23;20270;-93
2021/01/21 16:36:43;;;;;;;6.60;1.77;;;7.60;99.90;;;;;;6220772;23;20200;-94
2021/01/21 16:39:10;;;;;;;8.53;1.57;;;7.60;99.90;;;;;;6229684;23;20174;-96
2021/01/21 16:41:36;;;;;;;9.87;2.20;;;7.70;99.90;;;;;;6217012;23;20241;-94
2021/01/21 16:44:03;;;;;;;11.27;2.20;;;7.70;99.90;;;;;;6217219;23;20591;-96
2021/01/21 16:46:29;;;;;;;9.70;2.03;;;7.80;99.90;;;;;;6216848;23;20249;-95
2021/01/21 16:48:57;;;;;;;8.93;1.90;;;7.70;99.90;;;;;;6216743;23;20611;-95
2021/01/21 16:51:23;;;;;;;9.07;2.00;;;7.70;99.90;;;;;;6217017;23;20174;-92
2021/01/21 16:53:50;;;;;;;6.50;2.23;;;7.70;99.90;;;;;;6217324;23;20194;-90
2021/01/21 16:56:16;;;;;;;10.67;3.17;;;7.60;99.90;;;;;;6216570;23;20170;-89
2021/01/21 16:58:43;;;;;;;8.17;1.83;;;7.50;99.90;;;;;;6216658;23;20190;-89
2021/01/21 17:01:09;;;;;;;6.43;2.17;;;7.50;99.90;;;;;;6216288;23;20236;-90
2021/01/21 17:03:35;;;;;;;8.00;2.43;;;7.70;99.90;;;;;;6216444;23;20163;-89